Time;durP1;ratioP1;P1;durP2;ratioP2;P2;SDS_P1;SDS_P2;PMS_P1;PMS_P2;Temp;Humidity;BMP_temperature;BMP_pressure;BME280_temperature;BME280_humidity;BME280_pressure;Samples;Min_cycle;Max_cycle;Signal;HPM_P1;HPM_P2
2023/09/14 00:00:46;;;;;;;9.02;5.38;;;;;;;;;;5010632;28;20033;-70
2023/09/14 00:03:12;;;;;;;8.40;4.68;;;;;;;;;;5008495;28;20029;-71
2023/09/14 00:05:47;;;;;;;9.20;5.93;;;;;;;;;;5010734;28;20030;-70
2023/09/14 00:08:13;;;;;;;11.68;5.35;;;;;;;;;;5009575;28;20506;-71
2023/09/14 00:10:40;;;;;;;11.68;6.13;;;;;;;;;;5009032;28;20030;-70
2023/09/14 00:13:06;;;;;;;9.63;5.70;;;;;;;;;;5010341;28;20073;-70
2023/09/14 00:15:32;;;;;;;9.98;5.43;;;;;;;;;;5010987;28;20359;-70
2023/09/14 00:17:58;;;;;;;8.30;5.43;;;;;;;;;;5009409;28;20099;-70
2023/09/14 00:20:27;;;;;;;7.95;5.10;;;;;;;;;;5010493;28;20552;-70
2023/09/14 00:22:55;;;;;;;9.25;4.88;;;;;;;;;;5009502;28;20041;-70
2023/09/14 00:25:21;;;;;;;8.30;5.13;;;;;;;;;;5010926;28;20017;-70
2023/09/14 00:27:47;;;;;;;8.70;5.63;;;;;;;;;;5011038;28;20034;-71
2023/09/14 00:30:13;;;;;;;8.50;5.88;;;;;;;;;;5011024;28;20034;-68
2023/09/14 00:32:40;;;;;;;22.33;7.32;;;;;;;;;;5010064;28;20038;-70
2023/09/14 00:35:09;;;;;;;13.57;5.97;;;;;;;;;;5009798;28;20057;-70
2023/09/14 00:37:36;;;;;;;10.10;5.60;;;;;;;;;;5011017;28;20034;-69
2023/09/14 00:40:06;;;;;;;9.60;6.15;;;;;;;;;;5010924;28;20117;-69
2023/09/14 00:42:48;;;;;;;9.00;5.20;;;;;;;;;;5009834;28;20529;-70
2023/09/14 00:45:15;;;;;;;7.13;4.93;;;;;;;;;;5009635;28;20048;-71
2023/09/14 00:47:45;;;;;;;7.47;5.28;;;;;;;;;;5060504;28;20044;-71
2023/09/14 00:50:15;;;;;;;11.30;6.25;;;;;;;;;;5009513;28;20052;-70
2023/09/14 00:52:41;;;;;;;10.48;6.25;;;;;;;;;;5009500;28;20536;-70
2023/09/14 00:55:09;;;;;;;7.20;4.75;;;;;;;;;;5009420;28;20486;-71
2023/09/14 00:57:36;;;;;;;9.98;5.80;;;;;;;;;;5009657;28;20061;-70
2023/09/14 01:00:06;;;;;;;8.18;5.22;;;;;;;;;;5009407;28;20098;-70
2023/09/14 01:02:35;;;;;;;13.07;6.45;;;;;;;;;;5010269;28;20044;-70
2023/09/14 01:05:04;;;;;;;13.95;8.20;;;;;;;;;;5010234;28;20034;-70
2023/09/14 01:07:30;;;;;;;18.25;7.70;;;;;;;;;;5011381;28;20018;-70
2023/09/14 01:09:56;;;;;;;16.38;7.80;;;;;;;;;;5009515;28;20117;-70
2023/09/14 01:12:22;;;;;;;10.50;7.35;;;;;;;;;;5009138;28;20547;-70
2023/09/14 01:15:15;;;;;;;13.60;7.70;;;;;;;;;;5011090;28;20030;-70
2023/09/14 01:18:00;;;;;;;17.20;8.43;;;;;;;;;;5010101;28;20037;-70
2023/09/14 01:21:00;;;;;;;23.05;8.98;;;;;;;;;;5009671;28;20488;-69
2023/09/14 01:24:03;;;;;;;14.70;7.47;;;;;;;;;;5009829;28;20045;-70
2023/09/14 01:26:30;;;;;;;18.40;10.05;;;;;;;;;;5009886;28;20091;-70
2023/09/14 01:28:59;;;;;;;12.68;8.23;;;;;;;;;;5010224;28;20115;-71
2023/09/14 01:31:25;;;;;;;13.43;8.50;;;;;;;;;;5009684;28;20036;-70
2023/09/14 01:33:51;;;;;;;11.98;7.20;;;;;;;;;;5011067;28;20034;-69
2023/09/14 01:36:54;;;;;;;11.40;7.30;;;;;;;;;;5009640;28;20034;-69
2023/09/14 01:39:24;;;;;;;12.38;7.80;;;;;;;;;;4999574;28;20049;-71
2023/09/14 01:41:54;;;;;;;11.75;7.70;;;;;;;;;;5009345;28;20030;-70
2023/09/14 01:44:26;;;;;;;8.85;6.28;;;;;;;;;;5009506;28;20030;-70
2023/09/14 01:46:53;;;;;;;13.52;7.55;;;;;;;;;;5010818;28;20096;-71
2023/09/14 01:49:19;;;;;;;14.27;8.00;;;;;;;;;;5010580;28;20050;-70
2023/09/14 01:51:45;;;;;;;13.55;7.70;;;;;;;;;;5010826;28;21131;-71
2023/09/14 01:54:11;;;;;;;17.98;8.85;;;;;;;;;;5009181;28;20490;-70
2023/09/14 01:56:38;;;;;;;19.08;9.02;;;;;;;;;;5009296;28;20178;-70
2023/09/14 01:59:04;;;;;;;8.60;7.18;;;;;;;;;;4993029;28;20033;-70
2023/09/14 02:01:30;;;;;;;13.00;7.00;;;;;;;;;;5009164;28;20403;-70
2023/09/14 02:03:56;;;;;;;12.73;6.93;;;;;;;;;;5009178;28;20026;-70
2023/09/14 02:06:22;;;;;;;14.82;6.50;;;;;;;;;;5009208;28;20030;-70
2023/09/14 02:08:47;;;;;;;12.50;7.43;;;;;;;;;;5010315;28;20097;-71
2023/09/14 02:11:13;;;;;;;12.90;6.22;;;;;;;;;;5008985;28;20053;-70
2023/09/14 02:13:39;;;;;;;13.18;6.55;;;;;;;;;;5009073;28;20064;-70
2023/09/14 02:16:06;;;;;;;13.48;5.75;;;;;;;;;;5009019;28;20080;-70
2023/09/14 02:18:32;;;;;;;8.50;5.72;;;;;;;;;;5010004;28;20030;-70
2023/09/14 02:20:57;;;;;;;10.32;6.00;;;;;;;;;;5008781;28;20038;-70
2023/09/14 02:23:23;;;;;;;8.43;5.85;;;;;;;;;;5008830;28;20571;-69
2023/09/14 02:25:50;;;;;;;12.45;6.20;;;;;;;;;;5010193;28;20026;-71
2023/09/14 02:28:15;;;;;;;12.98;5.95;;;;;;;;;;5010046;28;20075;-71
2023/09/14 02:30:42;;;;;;;14.38;6.75;;;;;;;;;;5008630;28;20042;-71
2023/09/14 02:33:08;;;;;;;11.55;6.22;;;;;;;;;;5004916;28;20033;-71
2023/09/14 02:35:35;;;;;;;14.48;6.75;;;;;;;;;;5005530;28;20073;-71
2023/09/14 02:38:02;;;;;;;14.10;6.50;;;;;;;;;;5007610;28;20026;-70
2023/09/14 02:40:29;;;;;;;16.00;7.60;;;;;;;;;;5049887;28;20036;-71
2023/09/14 02:42:55;;;;;;;26.50;8.52;;;;;;;;;;5108770;28;20031;-71
2023/09/14 02:45:21;;;;;;;26.00;9.27;;;;;;;;;;5107551;28;20032;-71
2023/09/14 02:47:46;;;;;;;19.55;9.27;;;;;;;;;;5107364;28;20039;-71
2023/09/14 02:50:12;;;;;;;18.63;8.70;;;;;;;;;;5107133;28;20035;-71
2023/09/14 02:52:38;;;;;;;25.27;9.30;;;;;;;;;;5089739;28;20396;-70
2023/09/14 02:55:04;;;;;;;29.70;10.43;;;;;;;;;;5108764;28;20036;-71
2023/09/14 02:57:30;;;;;;;26.45;9.80;;;;;;;;;;5107296;28;20035;-71
2023/09/14 02:59:56;;;;;;;20.90;9.32;;;;;;;;;;5106811;28;20039;-71
2023/09/14 03:02:24;;;;;;;18.08;10.55;;;;;;;;;;5108063;28;20111;-71
2023/09/14 03:04:50;;;;;;;13.48;8.57;;;;;;;;;;5106883;28;20031;-71
2023/09/14 03:07:16;;;;;;;43.10;11.52;;;;;;;;;;5074567;28;20041;-70
2023/09/14 03:09:42;;;;;;;16.70;8.40;;;;;;;;;;5101290;28;20039;-71
2023/09/14 03:12:09;;;;;;;11.77;8.23;;;;;;;;;;5107271;28;20154;-71
2023/09/14 03:14:35;;;;;;;11.25;8.40;;;;;;;;;;5108252;28;20118;-71
2023/09/14 03:17:01;;;;;;;34.80;11.35;;;;;;;;;;5106844;28;20077;-71
2023/09/14 03:19:28;;;;;;;40.15;12.40;;;;;;;;;;5106415;28;20044;-71
2023/09/14 03:21:54;;;;;;;21.65;11.52;;;;;;;;;;5020456;28;20075;-71
2023/09/14 03:24:20;;;;;;;21.13;10.13;;;;;;;;;;5080910;28;20079;-71
2023/09/14 03:26:46;;;;;;;16.63;9.20;;;;;;;;;;5106836;28;20024;-71
2023/09/14 03:29:12;;;;;;;20.27;9.73;;;;;;;;;;5106149;28;20087;-71
2023/09/14 03:31:38;;;;;;;25.13;9.35;;;;;;;;;;5089020;28;20039;-71
2023/09/14 03:34:05;;;;;;;17.33;9.07;;;;;;;;;;5107317;28;20542;-71
2023/09/14 03:36:32;;;;;;;10.60;7.68;;;;;;;;;;5076073;28;20391;-71
2023/09/14 03:38:58;;;;;;;23.25;8.88;;;;;;;;;;5006910;28;20399;-71
2023/09/14 03:41:29;;;;;;;23.52;8.20;;;;;;;;;;5006491;28;20525;-71
2023/09/14 03:43:55;;;;;;;15.15;8.73;;;;;;;;;;5018178;28;20077;-71
2023/09/14 03:46:21;;;;;;;14.77;8.50;;;;;;;;;;5007961;28;20032;-71
2023/09/14 03:48:47;;;;;;;35.78;10.48;;;;;;;;;;5055378;28;20114;-71
2023/09/14 03:51:12;;;;;;;14.85;8.32;;;;;;;;;;5109979;28;20579;-71
2023/09/14 03:53:39;;;;;;;26.35;9.35;;;;;;;;;;5075466;28;20034;-71
2023/09/14 03:56:05;;;;;;;22.50;9.23;;;;;;;;;;5111731;28;20027;-71
2023/09/14 03:58:31;;;;;;;19.63;9.40;;;;;;;;;;5110202;28;20031;-71
2023/09/14 04:00:57;;;;;;;18.17;8.18;;;;;;;;;;5110255;28;20377;-71
2023/09/14 04:03:24;;;;;;;15.95;7.90;;;;;;;;;;5093155;28;20037;-71
2023/09/14 04:05:50;;;;;;;13.50;6.65;;;;;;;;;;5009858;28;20045;-71
2023/09/14 04:08:16;;;;;;;20.40;7.22;;;;;;;;;;5011568;28;20514;-72
2023/09/14 04:10:42;;;;;;;14.70;6.72;;;;;;;;;;5006872;28;20026;-72
2023/09/14 04:13:28;;;;;;;12.98;5.78;;;;;;;;;;5007976;28;20045;-71
2023/09/14 04:15:56;;;;;;;13.15;5.45;;;;;;;;;;5010617;28;20041;-70
2023/09/14 04:18:25;;;;;;;22.02;6.35;;;;;;;;;;5009971;28;20359;-71
2023/09/14 04:20:52;;;;;;;16.67;6.13;;;;;;;;;;5010177;28;20057;-71
2023/09/14 04:23:19;;;;;;;30.88;8.30;;;;;;;;;;5008873;28;20022;-71
2023/09/14 04:25:49;;;;;;;28.30;7.90;;;;;;;;;;5009028;28;20150;-71
2023/09/14 04:28:18;;;;;;;13.77;6.53;;;;;;;;;;5009714;28;20129;-71
2023/09/14 04:30:44;;;;;;;12.80;5.80;;;;;;;;;;5010486;28;20083;-71
2023/09/14 04:33:15;;;;;;;14.07;5.60;;;;;;;;;;5007577;28;20049;-71
2023/09/14 04:35:41;;;;;;;16.05;7.10;;;;;;;;;;5009777;28;20026;-72
2023/09/14 04:38:08;;;;;;;13.73;6.40;;;;;;;;;;5009198;28;20033;-71
2023/09/14 04:40:37;;;;;;;17.77;7.38;;;;;;;;;;5009414;28;20119;-71
2023/09/14 04:43:05;;;;;;;18.00;6.80;;;;;;;;;;5010040;28;20509;-70
2023/09/14 04:45:31;;;;;;;15.95;5.72;;;;;;;;;;5010066;28;20045;-71
2023/09/14 04:47:57;;;;;;;13.20;6.13;;;;;;;;;;5010055;28;20037;-71
2023/09/14 04:50:23;;;;;;;14.63;5.70;;;;;;;;;;5009803;28;20041;-71
2023/09/14 04:52:49;;;;;;;19.58;5.50;;;;;;;;;;5009795;28;20034;-71
2023/09/14 04:55:15;;;;;;;16.25;5.22;;;;;;;;;;5009649;28;20390;-71
2023/09/14 04:57:41;;;;;;;20.02;5.60;;;;;;;;;;5009815;28;20057;-70
2023/09/14 05:00:11;;;;;;;19.35;5.85;;;;;;;;;;5009729;28;20109;-71
2023/09/14 05:02:39;;;;;;;19.60;6.20;;;;;;;;;;5010196;28;20072;-71
2023/09/14 05:05:07;;;;;;;24.95;5.60;;;;;;;;;;5009665;28;20033;-71
2023/09/14 05:07:33;;;;;;;13.52;5.70;;;;;;;;;;5009604;28;20451;-71
2023/09/14 05:09:59;;;;;;;10.75;5.15;;;;;;;;;;5009408;28;20026;-71
2023/09/14 05:12:25;;;;;;;11.25;5.05;;;;;;;;;;5009110;28;20045;-71
2023/09/14 05:14:52;;;;;;;21.30;5.30;;;;;;;;;;5008912;28;20038;-71
2023/09/14 05:17:19;;;;;;;16.65;5.18;;;;;;;;;;5009055;28;20030;-70
2023/09/14 05:19:45;;;;;;;12.70;5.47;;;;;;;;;;5009533;28;20038;-71
2023/09/14 05:22:11;;;;;;;25.60;6.80;;;;;;;;;;4992918;28;20310;-69
2023/09/14 05:24:40;;;;;;;21.27;6.78;;;;;;;;;;5008895;28;20026;-69
2023/09/14 05:27:07;;;;;;;15.30;5.30;;;;;;;;;;5009237;28;20064;-69
2023/09/14 05:29:33;;;;;;;17.23;7.18;;;;;;;;;;5009975;28;20059;-69
2023/09/14 05:31:59;;;;;;;12.18;5.13;;;;;;;;;;5009065;28;20041;-68
2023/09/14 05:34:26;;;;;;;16.38;5.78;;;;;;;;;;5009067;28;20029;-68
2023/09/14 05:36:52;;;;;;;15.65;5.80;;;;;;;;;;5010242;28;20034;-68
2023/09/14 05:39:19;;;;;;;14.18;5.18;;;;;;;;;;5008883;28;20029;-69
2023/09/14 05:41:45;;;;;;;10.25;5.40;;;;;;;;;;5008490;28;20034;-68
2023/09/14 05:44:12;;;;;;;10.35;5.70;;;;;;;;;;5008869;28;20120;-69
2023/09/14 05:46:39;;;;;;;27.13;7.63;;;;;;;;;;5010148;28;20104;-69
2023/09/14 05:49:06;;;;;;;12.18;6.18;;;;;;;;;;5008543;28;20037;-70
2023/09/14 05:51:32;;;;;;;12.73;5.80;;;;;;;;;;5008182;28;20045;-67
2023/09/14 05:53:59;;;;;;;13.05;6.70;;;;;;;;;;5008268;28;20030;-69
2023/09/14 05:56:25;;;;;;;12.40;6.20;;;;;;;;;;5007185;28;20521;-70
2023/09/14 05:58:51;;;;;;;11.40;6.15;;;;;;;;;;5008099;28;20029;-70
2023/09/14 06:01:17;;;;;;;9.50;5.55;;;;;;;;;;5009503;28;20114;-70
2023/09/14 06:03:43;;;;;;;13.05;5.18;;;;;;;;;;5008133;28;20455;-70
2023/09/14 06:06:09;;;;;;;10.13;5.45;;;;;;;;;;5010073;28;20075;-70
2023/09/14 06:08:35;;;;;;;20.65;6.45;;;;;;;;;;5009399;28;20029;-70
2023/09/14 06:11:02;;;;;;;11.57;5.65;;;;;;;;;;5008060;28;20081;-69
2023/09/14 06:13:28;;;;;;;9.25;5.78;;;;;;;;;;5009641;28;20049;-70
2023/09/14 06:15:54;;;;;;;12.85;5.60;;;;;;;;;;5009527;28;20687;-69
2023/09/14 06:18:20;;;;;;;10.73;4.60;;;;;;;;;;5008956;28;20057;-70
2023/09/14 06:20:46;;;;;;;7.20;4.40;;;;;;;;;;5008926;28;20044;-71
2023/09/14 06:23:12;;;;;;;9.10;5.15;;;;;;;;;;5009484;28;20033;-70
2023/09/14 06:25:38;;;;;;;8.30;4.60;;;;;;;;;;5009132;28;20454;-70
2023/09/14 06:28:04;;;;;;;14.60;5.78;;;;;;;;;;5009840;28;20032;-70
2023/09/14 06:30:30;;;;;;;8.48;5.82;;;;;;;;;;5009235;28;20099;-71
2023/09/14 06:32:55;;;;;;;24.75;7.03;;;;;;;;;;5008692;28;20471;-70
2023/09/14 06:35:21;;;;;;;9.30;4.68;;;;;;;;;;5008803;28;20038;-70
2023/09/14 06:37:46;;;;;;;7.28;4.15;;;;;;;;;;5009113;28;20030;-70
2023/09/14 06:40:14;;;;;;;8.25;4.20;;;;;;;;;;5009011;28;20322;-70
2023/09/14 06:42:41;;;;;;;9.55;4.55;;;;;;;;;;5008814;28;20037;-70
2023/09/14 06:45:07;;;;;;;12.75;4.10;;;;;;;;;;5008803;28;20040;-70
2023/09/14 06:47:33;;;;;;;17.95;5.05;;;;;;;;;;5009058;28;20022;-70
2023/09/14 06:49:59;;;;;;;11.95;4.07;;;;;;;;;;5007660;28;20153;-70
2023/09/14 06:52:25;;;;;;;10.18;4.47;;;;;;;;;;5008864;28;20054;-70
2023/09/14 06:54:51;;;;;;;14.20;3.80;;;;;;;;;;5008920;28;20041;-69
2023/09/14 06:57:16;;;;;;;6.20;3.20;;;;;;;;;;5008886;28;20022;-69
2023/09/14 06:59:42;;;;;;;6.82;3.28;;;;;;;;;;5008223;28;20144;-70
2023/09/14 07:02:08;;;;;;;11.35;3.72;;;;;;;;;;5008912;28;20036;-70
2023/09/14 07:04:34;;;;;;;9.68;3.75;;;;;;;;;;5008630;28;20380;-69
2023/09/14 07:07:00;;;;;;;6.95;3.45;;;;;;;;;;5007648;28;20026;-70
2023/09/14 07:09:26;;;;;;;13.07;4.22;;;;;;;;;;5007909;28;20049;-69
2023/09/14 07:11:52;;;;;;;7.53;3.70;;;;;;;;;;5008227;28;20072;-70
2023/09/14 07:14:18;;;;;;;5.55;3.00;;;;;;;;;;5023581;28;20077;-71
2023/09/14 07:16:44;;;;;;;7.97;3.30;;;;;;;;;;5008354;28;20032;-71
2023/09/14 07:19:10;;;;;;;6.75;3.60;;;;;;;;;;5009021;28;20434;-69
2023/09/14 07:21:37;;;;;;;14.25;4.53;;;;;;;;;;5008533;28;20391;-71
2023/09/14 07:24:05;;;;;;;17.10;4.53;;;;;;;;;;5008361;28;20402;-70
2023/09/14 07:26:32;;;;;;;8.98;4.13;;;;;;;;;;5008739;28;20599;-69
2023/09/14 07:28:58;;;;;;;11.27;3.78;;;;;;;;;;5009018;28;20472;-70
2023/09/14 07:31:24;;;;;;;8.55;3.75;;;;;;;;;;5008193;28;20086;-71
2023/09/14 07:33:50;;;;;;;8.63;3.63;;;;;;;;;;5008516;28;20034;-71
2023/09/14 07:36:16;;;;;;;7.25;3.85;;;;;;;;;;5008439;28;20026;-71
2023/09/14 07:38:42;;;;;;;8.82;4.00;;;;;;;;;;5006898;28;20034;-69
2023/09/14 07:41:08;;;;;;;18.33;4.63;;;;;;;;;;5008285;28;20032;-70
2023/09/14 07:43:33;;;;;;;11.30;3.83;;;;;;;;;;5006844;28;20045;-70
2023/09/14 07:45:59;;;;;;;8.68;4.15;;;;;;;;;;5006922;28;20309;-71
2023/09/14 07:48:26;;;;;;;11.45;4.75;;;;;;;;;;5006694;28;20030;-70
2023/09/14 07:50:52;;;;;;;7.55;4.20;;;;;;;;;;5007684;28;20435;-70
2023/09/14 07:53:18;;;;;;;8.60;3.88;;;;;;;;;;5008100;28;20455;-70
2023/09/14 07:55:45;;;;;;;11.68;4.50;;;;;;;;;;5008115;28;20074;-68
2023/09/14 07:58:11;;;;;;;10.63;4.30;;;;;;;;;;5008400;28;20086;-70
2023/09/14 08:00:37;;;;;;;13.02;4.78;;;;;;;;;;5008164;28;20033;-72
2023/09/14 08:03:03;;;;;;;8.63;4.20;;;;;;;;;;5007798;28;20098;-71
2023/09/14 08:05:28;;;;;;;10.27;4.47;;;;;;;;;;5008196;28;20018;-72
2023/09/14 08:07:54;;;;;;;7.38;4.00;;;;;;;;;;5008049;28;20038;-71
2023/09/14 08:10:20;;;;;;;7.10;3.97;;;;;;;;;;5007913;28;20088;-71
2023/09/14 08:12:46;;;;;;;8.55;3.90;;;;;;;;;;5007938;28;20036;-70
2023/09/14 08:15:12;;;;;;;7.60;4.70;;;;;;;;;;5006610;28;20058;-69
2023/09/14 08:17:38;;;;;;;10.95;4.00;;;;;;;;;;5008086;28;20034;-71
2023/09/14 08:20:04;;;;;;;19.23;4.68;;;;;;;;;;5008567;28;20029;-71
2023/09/14 08:22:30;;;;;;;10.20;3.78;;;;;;;;;;5011462;28;20430;-72
2023/09/14 08:25:00;;;;;;;12.88;5.00;;;;;;;;;;5011149;28;20021;-70
2023/09/14 08:27:28;;;;;;;7.53;4.53;;;;;;;;;;5011027;28;20060;-70
2023/09/14 08:29:54;;;;;;;8.23;4.10;;;;;;;;;;5010692;28;20117;-69
2023/09/14 08:32:21;;;;;;;6.43;4.70;;;;;;;;;;5010838;28;20117;-70
2023/09/14 08:34:46;;;;;;;9.57;3.80;;;;;;;;;;5010921;28;20524;-71
2023/09/14 08:37:12;;;;;;;9.68;4.22;;;;;;;;;;5009517;28;20130;-70
2023/09/14 08:39:38;;;;;;;8.38;3.65;;;;;;;;;;5010761;28;20378;-70
2023/09/14 08:42:04;;;;;;;13.27;3.55;;;;;;;;;;5010141;28;20041;-71
2023/09/14 08:44:34;;;;;;;6.45;3.55;;;;;;;;;;5010957;28;20436;-71
2023/09/14 08:47:03;;;;;;;10.90;3.53;;;;;;;;;;5010902;28;20041;-71
2023/09/14 08:49:31;;;;;;;7.10;3.30;;;;;;;;;;5010722;28;20032;-70
2023/09/14 08:51:59;;;;;;;9.88;3.55;;;;;;;;;;5010453;28;20344;-70
2023/09/14 08:54:25;;;;;;;13.00;3.92;;;;;;;;;;5010098;28;20391;-72
2023/09/14 08:56:51;;;;;;;6.60;3.40;;;;;;;;;;5010495;28;20049;-73
2023/09/14 08:59:20;;;;;;;7.05;3.10;;;;;;;;;;5010513;28;20029;-71
2023/09/14 09:01:48;;;;;;;9.38;3.13;;;;;;;;;;5010531;28;20154;-71
2023/09/14 09:04:14;;;;;;;15.95;3.60;;;;;;;;;;5009065;28;20391;-71
2023/09/14 09:06:42;;;;;;;6.78;3.60;;;;;;;;;;5010144;28;20104;-72
2023/09/14 09:09:10;;;;;;;6.47;3.13;;;;;;;;;;5010101;28;20052;-71
2023/09/14 09:11:37;;;;;;;11.23;3.95;;;;;;;;;;5010042;28;20105;-72
2023/09/14 09:14:03;;;;;;;11.38;3.67;;;;;;;;;;5010160;28;20026;-72
2023/09/14 09:16:30;;;;;;;6.45;2.92;;;;;;;;;;5010279;28;20037;-71
2023/09/14 09:19:04;;;;;;;11.15;3.45;;;;;;;;;;5010140;28;20364;-71
2023/09/14 09:21:37;;;;;;;7.70;3.30;;;;;;;;;;5009978;28;20060;-71
2023/09/14 09:24:05;;;;;;;11.48;3.78;;;;;;;;;;5009798;28;20046;-71
2023/09/14 09:26:33;;;;;;;10.23;3.47;;;;;;;;;;5008706;28;20110;-71
2023/09/14 09:28:59;;;;;;;9.40;3.40;;;;;;;;;;5010105;28;20379;-71
2023/09/14 09:31:42;;;;;;;4.97;3.08;;;;;;;;;;5009166;28;20037;-72
2023/09/14 09:34:09;;;;;;;4.70;3.10;;;;;;;;;;5010038;28;20428;-71
2023/09/14 09:36:35;;;;;;;7.35;2.53;;;;;;;;;;5008542;28;20034;-72
2023/09/14 09:39:04;;;;;;;8.75;3.05;;;;;;;;;;5010292;28;20033;-72
2023/09/14 09:41:34;;;;;;;7.03;2.72;;;;;;;;;;5010211;28;20061;-72
2023/09/14 09:44:09;;;;;;;6.38;2.60;;;;;;;;;;5009971;28;20038;-72
2023/09/14 09:46:35;;;;;;;5.55;2.72;;;;;;;;;;5024425;28;20034;-73
2023/09/14 09:49:17;;;;;;;8.55;3.10;;;;;;;;;;5009931;28;20075;-71
2023/09/14 09:51:50;;;;;;;7.70;3.60;;;;;;;;;;5010110;28;20046;-72
2023/09/14 09:54:21;;;;;;;10.90;3.17;;;;;;;;;;5010047;28;20038;-71
2023/09/14 09:56:48;;;;;;;9.48;2.80;;;;;;;;;;5009787;28;20487;-71
2023/09/14 09:59:15;;;;;;;5.20;2.55;;;;;;;;;;5009974;28;20077;-71
2023/09/14 10:01:44;;;;;;;8.88;2.40;;;;;;;;;;5010708;28;20476;-71
2023/09/14 10:04:17;;;;;;;5.95;3.00;;;;;;;;;;5010161;28;20377;-71
2023/09/14 10:06:55;;;;;;;9.32;3.03;;;;;;;;;;5021974;28;20052;-71
2023/09/14 10:09:22;;;;;;;9.25;3.35;;;;;;;;;;5006121;28;20479;-71
2023/09/14 10:11:51;;;;;;;6.80;2.85;;;;;;;;;;5007734;28;20038;-71
2023/09/14 10:14:20;;;;;;;8.40;2.90;;;;;;;;;;5008334;28;20037;-71
2023/09/14 10:16:48;;;;;;;6.25;2.97;;;;;;;;;;5009799;28;20030;-70
2023/09/14 10:19:15;;;;;;;8.25;3.72;;;;;;;;;;5009598;28;20087;-72
2023/09/14 10:21:43;;;;;;;17.83;4.45;;;;;;;;;;5009927;28;20022;-72
2023/09/14 10:24:12;;;;;;;7.70;3.00;;;;;;;;;;5009857;28;20099;-71
2023/09/14 10:26:38;;;;;;;5.90;3.28;;;;;;;;;;5009933;28;20414;-71
2023/09/14 10:29:09;;;;;;;9.40;2.90;;;;;;;;;;5010468;28;20034;-71
2023/09/14 10:31:35;;;;;;;8.10;2.78;;;;;;;;;;5008795;28;20060;-71
2023/09/14 10:34:03;;;;;;;8.55;2.90;;;;;;;;;;5009948;28;20113;-71
2023/09/14 10:36:31;;;;;;;7.55;2.90;;;;;;;;;;5009483;28;20030;-71
2023/09/14 10:39:00;;;;;;;7.60;3.30;;;;;;;;;;5008432;28;20025;-72
2023/09/14 10:41:27;;;;;;;8.88;3.10;;;;;;;;;;5009463;28;20120;-71
2023/09/14 10:43:54;;;;;;;8.40;3.20;;;;;;;;;;5009789;28;20121;-71
2023/09/14 10:46:26;;;;;;;8.32;3.63;;;;;;;;;;5009458;28;20030;-73
2023/09/14 10:48:55;;;;;;;9.27;3.40;;;;;;;;;;5009070;28;20030;-72
2023/09/14 10:51:22;;;;;;;19.85;4.18;;;;;;;;;;5007474;28;20037;-70
2023/09/14 10:53:49;;;;;;;4.43;2.97;;;;;;;;;;5009043;28;20039;-71
2023/09/14 10:56:31;;;;;;;6.47;3.00;;;;;;;;;;5023966;28;20030;-72
2023/09/14 10:58:57;;;;;;;13.48;3.88;;;;;;;;;;5009126;28;20069;-71
2023/09/14 11:01:25;;;;;;;6.93;3.65;;;;;;;;;;5008628;28;20041;-72
2023/09/14 11:04:13;;;;;;;9.13;3.05;;;;;;;;;;5008814;28;20038;-71
2023/09/14 11:06:54;;;;;;;7.53;2.95;;;;;;;;;;5008880;28;20098;-72
2023/09/14 11:09:25;;;;;;;7.00;3.55;;;;;;;;;;5008788;28;20108;-71
2023/09/14 11:11:53;;;;;;;6.88;3.05;;;;;;;;;;5008348;28;20034;-71
2023/09/14 11:14:22;;;;;;;9.70;3.17;;;;;;;;;;5008630;28;20018;-71
2023/09/14 11:16:53;;;;;;;6.10;3.03;;;;;;;;;;5008758;28;20029;-71
2023/09/14 11:19:35;;;;;;;8.23;2.83;;;;;;;;;;5008771;28;20030;-71
2023/09/14 11:22:01;;;;;;;5.90;2.97;;;;;;;;;;5008403;28;20045;-71
2023/09/14 11:24:38;;;;;;;5.57;3.00;;;;;;;;;;5008641;28;20053;-71
2023/09/14 11:27:04;;;;;;;6.82;2.90;;;;;;;;;;5008700;28;20121;-70
2023/09/14 11:29:41;;;;;;;6.05;2.97;;;;;;;;;;5008957;28;20498;-71
2023/09/14 11:32:07;;;;;;;17.02;4.57;;;;;;;;;;5008517;28;20030;-70
2023/09/14 11:34:36;;;;;;;8.13;3.22;;;;;;;;;;5008522;28;20026;-72
2023/09/14 11:37:05;;;;;;;7.05;2.80;;;;;;;;;;5008775;28;20030;-71
2023/09/14 11:39:32;;;;;;;6.63;2.83;;;;;;;;;;5008735;28;20086;-72
2023/09/14 11:42:04;;;;;;;9.98;3.08;;;;;;;;;;5007392;28;20033;-71
2023/09/14 11:44:31;;;;;;;9.73;3.37;;;;;;;;;;5008685;28;20030;-71
2023/09/14 11:47:01;;;;;;;9.95;4.57;;;;;;;;;;5008674;28;20037;-71
2023/09/14 11:49:31;;;;;;;7.32;3.10;;;;;;;;;;5008375;28;20140;-71
2023/09/14 11:51:59;;;;;;;13.45;4.13;;;;;;;;;;5008169;28;20131;-70
2023/09/14 11:54:31;;;;;;;8.02;4.13;;;;;;;;;;5008444;28;20026;-71
2023/09/14 11:57:03;;;;;;;;;;;;;;;;;;5013031;28;20110;-70
2023/09/14 11:59:32;;;;;;;4.97;3.08;;;;;;;;;;5010508;28;19913;-70
2023/09/14 12:02:00;;;;;;;13.45;4.32;;;;;;;;;;5011918;28;20105;-71
2023/09/14 12:04:28;;;;;;;7.25;3.17;;;;;;;;;;5011888;28;20040;-70
2023/09/14 12:07:00;;;;;;;6.57;2.90;;;;;;;;;;5012206;28;20022;-69
2023/09/14 12:09:54;;;;;;;7.00;3.22;;;;;;;;;;5011827;28;20505;-70
2023/09/14 12:12:28;;;;;;;5.22;3.00;;;;;;;;;;5014699;28;20038;-71
2023/09/14 12:14:54;;;;;;;10.68;3.10;;;;;;;;;;5011748;28;20038;-70
2023/09/14 12:17:27;;;;;;;7.25;2.92;;;;;;;;;;5011951;28;20045;-71
2023/09/14 12:19:58;;;;;;;7.70;2.90;;;;;;;;;;5011941;28;20060;-71
2023/09/14 12:22:28;;;;;;;7.68;3.33;;;;;;;;;;5011774;28;20181;-70
2023/09/14 12:24:54;;;;;;;7.78;2.92;;;;;;;;;;5011611;28;20026;-70
2023/09/14 12:27:21;;;;;;;7.60;2.85;;;;;;;;;;5011456;28;20111;-70
2023/09/14 12:29:48;;;;;;;6.30;2.83;;;;;;;;;;5011216;28;20037;-69
2023/09/14 12:32:15;;;;;;;6.03;2.70;;;;;;;;;;5011419;28;20037;-70
2023/09/14 12:34:43;;;;;;;12.30;3.03;;;;;;;;;;5011181;28;20036;-70
2023/09/14 12:37:09;;;;;;;9.40;3.03;;;;;;;;;;5025900;28;20479;-71
2023/09/14 12:39:35;;;;;;;5.60;2.80;;;;;;;;;;5011061;28;20083;-71
2023/09/14 12:42:02;;;;;;;7.82;2.83;;;;;;;;;;5011195;28;20029;-70
2023/09/14 12:44:28;;;;;;;4.43;2.65;;;;;;;;;;5011343;28;20467;-69
2023/09/14 12:46:54;;;;;;;9.27;3.03;;;;;;;;;;5011303;28;20128;-70
2023/09/14 12:49:20;;;;;;;6.88;3.08;;;;;;;;;;5011054;28;20071;-70
2023/09/14 12:51:49;;;;;;;7.65;3.50;;;;;;;;;;5010869;28;20372;-70
2023/09/14 12:54:18;;;;;;;13.07;3.00;;;;;;;;;;5011427;28;20102;-70
2023/09/14 12:56:44;;;;;;;8.05;3.20;;;;;;;;;;5011259;28;20421;-70
2023/09/14 12:59:11;;;;;;;5.72;2.50;;;;;;;;;;5010765;28;20036;-69
2023/09/14 13:01:40;;;;;;;6.28;2.90;;;;;;;;;;5010721;28;20466;-69
2023/09/14 13:04:10;;;;;;;6.25;2.65;;;;;;;;;;5010496;28;20129;-70
2023/09/14 13:06:36;;;;;;;9.10;3.00;;;;;;;;;;5009588;28;20396;-70
2023/09/14 13:09:08;;;;;;;7.18;2.85;;;;;;;;;;5010884;28;20061;-70
2023/09/14 13:11:37;;;;;;;6.28;2.88;;;;;;;;;;5010873;28;20030;-70
2023/09/14 13:14:07;;;;;;;10.27;3.28;;;;;;;;;;5010646;28;20041;-69
2023/09/14 13:16:33;;;;;;;6.10;3.10;;;;;;;;;;5009772;28;20056;-69
2023/09/14 13:19:01;;;;;;;7.05;3.10;;;;;;;;;;5010183;28;20022;-69
2023/09/14 13:21:27;;;;;;;8.52;3.33;;;;;;;;;;5009969;28;20122;-70
2023/09/14 13:23:53;;;;;;;5.90;3.60;;;;;;;;;;5010591;28;20042;-69
2023/09/14 13:26:20;;;;;;;5.72;2.88;;;;;;;;;;5010358;28;20476;-69
2023/09/14 13:28:46;;;;;;;8.98;2.88;;;;;;;;;;5010291;28;20071;-67
2023/09/14 13:31:13;;;;;;;12.60;3.50;;;;;;;;;;5010254;28;20037;-67
2023/09/14 13:33:42;;;;;;;7.57;3.00;;;;;;;;;;5009962;28;20022;-70
2023/09/14 13:36:08;;;;;;;8.63;2.90;;;;;;;;;;5010670;28;20430;-68
2023/09/14 13:38:33;;;;;;;5.57;3.08;;;;;;;;;;5010354;28;20086;-68
2023/09/14 13:40:59;;;;;;;11.38;3.20;;;;;;;;;;5010225;28;20056;-69
2023/09/14 13:43:26;;;;;;;5.03;2.88;;;;;;;;;;5010173;28;20047;-69
2023/09/14 13:45:52;;;;;;;8.10;3.25;;;;;;;;;;5009679;28;20110;-69
2023/09/14 13:48:19;;;;;;;4.97;2.55;;;;;;;;;;5010215;28;20428;-70
2023/09/14 13:50:45;;;;;;;5.68;2.40;;;;;;;;;;5010369;28;20128;-69
2023/09/14 13:53:11;;;;;;;8.77;2.83;;;;;;;;;;5010530;28;20058;-68
2023/09/14 13:55:39;;;;;;;10.93;3.50;;;;;;;;;;5010002;28;20521;-69
2023/09/14 13:58:04;;;;;;;6.22;2.65;;;;;;;;;;5009792;28;20049;-68
2023/09/14 14:00:31;;;;;;;7.68;3.15;;;;;;;;;;5009391;28;20464;-68
2023/09/14 14:03:10;;;;;;;7.63;2.75;;;;;;;;;;5010080;28;20026;-69
2023/09/14 14:05:37;;;;;;;6.13;2.47;;;;;;;;;;5009917;28;20483;-68
2023/09/14 14:08:04;;;;;;;10.77;2.72;;;;;;;;;;5009885;28;20037;-68
2023/09/14 14:10:31;;;;;;;13.57;3.22;;;;;;;;;;5010056;28;20476;-69
2023/09/14 14:12:57;;;;;;;11.90;3.20;;;;;;;;;;5009928;28;20055;-68
2023/09/14 14:15:24;;;;;;;10.95;3.40;;;;;;;;;;5009659;28;20448;-68
2023/09/14 14:17:50;;;;;;;5.60;2.80;;;;;;;;;;5009425;28;20061;-68
2023/09/14 14:20:16;;;;;;;7.32;2.40;;;;;;;;;;5009583;28;20050;-69
2023/09/14 14:22:42;;;;;;;4.53;2.70;;;;;;;;;;5009948;28;20435;-68
2023/09/14 14:25:08;;;;;;;7.40;2.70;;;;;;;;;;5009433;28;20034;-68
2023/09/14 14:27:38;;;;;;;9.43;2.80;;;;;;;;;;5009920;28;20030;-68
2023/09/14 14:30:05;;;;;;;8.95;2.50;;;;;;;;;;5010142;28;20129;-67
2023/09/14 14:32:31;;;;;;;5.30;2.40;;;;;;;;;;5009732;28;20099;-67
2023/09/14 14:34:57;;;;;;;7.63;2.70;;;;;;;;;;5009459;28;20038;-66
2023/09/14 14:37:23;;;;;;;8.30;2.75;;;;;;;;;;5009422;28;20450;-67
2023/09/14 14:39:50;;;;;;;7.75;2.55;;;;;;;;;;5009086;28;20514;-67